Fort Worth Alliance Airport
KAFW : now visible

Airfield :











YOU CAN JOIN US ON...

 
LOGIN :

Register | Disclaimer

   EN    FR    IT 

 









Legend :    VFR   Marginal VFR   IFR   Intensive IFR   Very Intensive IFR
Visi :
Ceiling :
>= 8 km
>= 3000ft
5 to 8 km
1000 to 3000 ft
1500m to 5 km
500 to 1000 ft
800 to 1500m
200 to 500 ft
< 800m
< 200 ft
Symbols :   Thunderstorms  Fog  Heavy snow  Heavy precipitations  Wind > 20 kt






- Airport Elevation : 722 ft


KAFW - Fort Worth Alliance

CURRENT METAR :
  • 221429Z 19010KT 9SM OVC011 23/19 A2999 RMK AO2 T02280194

EXPIRED METARs :
  • 221403Z 17011KT 6SM BR BKN009 22/19 A2998 RMK AO2 T02170194
  • 221353Z 17010KT 6SM BR SCT008 21/19 A2998 RMK AO2 SLP141 T02110194
  • 221253Z 15006KT 7SM FEW012 20/18 A2997 RMK AO2 SLP136 T02000183
  • 221153Z 17006KT 9SM CLR 20/18 A2997 RMK AO2 SLP137 T02000183 10233 20200 53005

TAF KAFW
Valid from the 22 at 14:00 until the 23 at 12:00 UTC


221422Z 2214/2312 17010KT P6SM SCT009
TEMPO 2214/2216 BKN009
FM221600 18013KT P6SM SCT035
FM222300 18011KT P6SM SCT180
FM231100 20010KT P6SM VCSH BKN100
KZFW FIR / North America



MET'MAP, your aeronautical weather chart ! - Copyright ORBIFLY December 2007 - Disclaimer

ORBIFLY MET'MAP TEAM :

Programming & Development : Alexandra Zaïnal
Concept & original design : Baudouin d'Aumeries
Assistance for programming : Marc-Olivier Méhu
Technical & hardware support : Manuel Goepfert

Contact : metmap@orbifly.com




SOURCES & CREDITS :

   NOAA       Earth
Advisory